createdAt,value
2023-03-20T00:00:10.110Z,9.34
2023-03-20T00:01:09.362Z,9.34
2023-03-20T00:02:09.384Z,9.35
2023-03-20T00:03:10.144Z,9.31
2023-03-20T00:04:10.631Z,9.32
2023-03-20T00:05:09.396Z,9.34
2023-03-20T00:06:09.406Z,9.34
2023-03-20T00:07:09.674Z,9.42
2023-03-20T00:08:10.192Z,9.42
2023-03-20T00:09:09.586Z,9.42
2023-03-20T00:10:10.705Z,9.48
2023-03-20T00:11:09.237Z,9.49
2023-03-20T00:12:09.232Z,9.50
2023-03-20T00:13:10.206Z,9.52
2023-03-20T00:14:10.109Z,9.60
2023-03-20T00:15:09.180Z,9.63
2023-03-20T00:16:10.203Z,9.63
2023-03-20T00:17:09.165Z,9.61
2023-03-20T00:18:09.199Z,9.66
2023-03-20T00:19:10.048Z,9.67
2023-03-20T00:20:09.282Z,9.68
2023-03-20T00:21:09.127Z,9.75
2023-03-20T00:22:09.098Z,9.73
2023-03-20T00:23:10.270Z,9.75
2023-03-20T00:24:09.195Z,9.71
2023-03-20T00:25:09.078Z,9.78
2023-03-20T00:26:09.977Z,9.79
2023-03-20T00:27:09.030Z,9.86
2023-03-20T00:28:09.102Z,9.88
2023-03-20T00:29:09.218Z,9.91
2023-03-20T00:30:09.089Z,9.93
2023-03-20T00:31:09.001Z,9.93
2023-03-20T00:32:09.605Z,9.96
2023-03-20T00:33:10.009Z,9.99
2023-03-20T00:34:09.841Z,9.97
2023-03-20T00:35:09.401Z,9.96
2023-03-20T00:36:08.962Z,9.94
2023-03-20T00:37:08.958Z,9.91
2023-03-20T00:38:08.919Z,9.85
2023-03-20T00:39:09.020Z,9.83
2023-03-20T00:40:08.954Z,9.85
2023-03-20T00:41:08.939Z,9.83
2023-03-20T00:42:08.821Z,9.88
2023-03-20T00:43:08.825Z,9.86
2023-03-20T00:44:08.904Z,9.86
2023-03-20T00:45:08.919Z,9.83
2023-03-20T00:46:08.785Z,9.83
2023-03-20T00:47:08.803Z,9.88
2023-03-20T00:48:09.916Z,9.83
2023-03-20T00:49:08.774Z,9.82
2023-03-20T00:50:08.864Z,9.82
2023-03-20T00:51:09.636Z,9.86
2023-03-20T00:52:08.733Z,9.91
2023-03-20T00:53:08.728Z,9.94
2023-03-20T00:54:08.717Z,9.97
2023-03-20T00:55:08.679Z,9.91
2023-03-20T00:56:08.669Z,9.88
2023-03-20T00:57:08.664Z,9.83
2023-03-20T00:58:08.636Z,9.86
2023-03-20T00:59:09.544Z,9.88
2023-03-20T01:00:09.794Z,9.93
2023-03-20T01:01:08.827Z,9.99
2023-03-20T01:02:08.648Z,9.99
2023-03-20T01:03:08.630Z,9.99
2023-03-20T01:04:09.408Z,10.00
2023-03-20T01:05:08.608Z,9.99
2023-03-20T01:06:09.730Z,9.96
2023-03-20T01:07:08.517Z,9.91
2023-03-20T01:08:08.516Z,9.83
2023-03-20T01:09:08.475Z,9.78
2023-03-20T01:10:09.477Z,9.75
2023-03-20T01:11:09.428Z,9.67
2023-03-20T01:12:10.438Z,9.63
2023-03-20T01:13:08.489Z,9.58
2023-03-20T01:14:08.558Z,9.52
2023-03-20T01:15:08.401Z,9.46
2023-03-20T01:16:08.649Z,9.39
2023-03-20T01:17:08.687Z,9.35
2023-03-20T01:18:08.411Z,9.30
2023-03-20T01:19:08.347Z,9.27
2023-03-20T01:20:08.348Z,9.23
2023-03-20T01:21:08.350Z,9.20
2023-03-20T01:22:08.350Z,9.10
2023-03-20T01:23:08.672Z,9.06
2023-03-20T01:24:08.290Z,9.04
2023-03-20T01:25:09.439Z,8.99
2023-03-20T01:26:09.335Z,8.94
2023-03-20T01:27:08.393Z,8.94
2023-03-20T01:28:08.251Z,8.97
2023-03-20T01:29:08.309Z,8.96
2023-03-20T01:30:08.369Z,8.93
2023-03-20T01:31:08.217Z,8.93
2023-03-20T01:32:08.251Z,8.91
2023-03-20T01:33:09.235Z,8.84
2023-03-20T01:34:08.200Z,8.79
2023-03-20T01:35:08.162Z,8.73
2023-03-20T01:36:09.168Z,8.68
2023-03-20T01:37:08.192Z,8.63
2023-03-20T01:38:08.325Z,8.58
2023-03-20T01:39:08.159Z,8.54
2023-03-20T01:40:08.124Z,8.51
2023-03-20T01:41:08.056Z,8.50
2023-03-20T01:42:08.114Z,8.50
2023-03-20T01:43:08.103Z,8.47
2023-03-20T01:44:08.051Z,8.45
2023-03-20T01:45:08.060Z,8.45
2023-03-20T01:46:08.092Z,8.47
2023-03-20T01:47:07.984Z,8.45
2023-03-20T01:48:08.235Z,8.45
2023-03-20T01:49:08.080Z,8.44
2023-03-20T01:50:08.002Z,8.45
2023-03-20T01:51:07.970Z,8.45
2023-03-20T01:52:07.993Z,8.45
2023-03-20T01:53:07.948Z,8.44
2023-03-20T01:54:07.948Z,8.45
2023-03-20T01:55:09.114Z,8.44
2023-03-20T01:56:07.957Z,8.45
2023-03-20T01:57:07.866Z,8.47
2023-03-20T01:58:08.006Z,8.45
2023-03-20T01:59:07.897Z,8.45
2023-03-20T02:00:07.858Z,8.47
2023-03-20T02:01:08.398Z,8.47
2023-03-20T02:02:07.798Z,8.48
2023-03-20T02:03:07.821Z,8.48
2023-03-20T02:04:08.771Z,8.50
2023-03-20T02:05:07.873Z,8.50
2023-03-20T02:06:07.809Z,8.51
2023-03-20T02:07:07.881Z,8.51
2023-03-20T02:08:08.892Z,8.53
2023-03-20T02:09:08.303Z,8.53
2023-03-20T02:10:07.748Z,8.51
2023-03-20T02:11:07.839Z,8.53
2023-03-20T02:12:07.719Z,8.54
2023-03-20T02:13:07.685Z,8.54
2023-03-20T02:14:07.810Z,8.55
2023-03-20T02:15:07.631Z,8.57
2023-03-20T02:16:07.648Z,8.57
2023-03-20T02:17:07.796Z,8.57
2023-03-20T02:18:07.614Z,8.58
2023-03-20T02:19:07.640Z,8.58
2023-03-20T02:20:08.848Z,8.60
2023-03-20T02:21:07.592Z,8.60
2023-03-20T02:22:07.596Z,8.62
2023-03-20T02:23:07.545Z,8.62
2023-03-20T02:24:07.575Z,8.63
2023-03-20T02:25:07.528Z,8.63
2023-03-20T02:26:07.530Z,8.63
2023-03-20T02:27:07.501Z,8.65
2023-03-20T02:28:07.514Z,8.65
2023-03-20T02:29:07.542Z,8.66
2023-03-20T02:30:08.322Z,8.68
2023-03-20T02:31:07.465Z,8.68
2023-03-20T02:32:07.432Z,8.68
2023-03-20T02:33:07.458Z,8.68
2023-03-20T02:34:07.404Z,8.68
2023-03-20T02:35:07.430Z,8.69
2023-03-20T02:36:08.289Z,8.69
2023-03-20T02:37:07.395Z,8.71
2023-03-20T02:38:07.382Z,8.71
2023-03-20T02:39:07.343Z,8.69
2023-03-20T02:40:07.374Z,8.71
2023-03-20T02:41:08.312Z,8.71
2023-03-20T02:42:07.317Z,8.73
2023-03-20T02:43:07.317Z,8.73
2023-03-20T02:44:07.273Z,8.73
2023-03-20T02:45:07.354Z,8.75
2023-03-20T02:46:07.320Z,8.73
2023-03-20T02:47:07.314Z,8.72
2023-03-20T02:48:07.242Z,8.72
2023-03-20T02:49:07.267Z,8.72
2023-03-20T02:50:07.205Z,8.72
2023-03-20T02:51:07.177Z,8.71
2023-03-20T02:52:07.172Z,8.71
2023-03-20T02:53:07.249Z,8.71
2023-03-20T02:54:07.293Z,8.71
2023-03-20T02:55:07.254Z,8.72
2023-03-20T02:56:08.372Z,8.72
2023-03-20T02:57:07.116Z,8.71
2023-03-20T02:58:07.095Z,8.69
2023-03-20T02:59:07.117Z,8.71
2023-03-20T03:00:07.134Z,8.72
2023-03-20T03:01:07.090Z,8.69
2023-03-20T03:02:07.390Z,8.69
2023-03-20T03:03:07.017Z,8.69
2023-03-20T03:04:07.038Z,8.68
2023-03-20T03:05:07.194Z,8.69
2023-03-20T03:06:07.031Z,8.71
2023-03-20T03:07:07.078Z,8.71
2023-03-20T03:08:07.122Z,8.71
2023-03-20T03:09:06.998Z,8.71
2023-03-20T03:10:06.989Z,8.72
2023-03-20T03:11:07.135Z,8.73
2023-03-20T03:12:07.099Z,8.73
2023-03-20T03:13:06.891Z,8.73
2023-03-20T03:14:06.892Z,8.75
2023-03-20T03:15:08.090Z,8.73
2023-03-20T03:16:06.965Z,8.75
2023-03-20T03:17:06.908Z,8.78
2023-03-20T03:18:06.906Z,8.76
2023-03-20T03:19:06.857Z,8.79
2023-03-20T03:20:06.828Z,8.81
2023-03-20T03:21:06.852Z,8.79
2023-03-20T03:22:06.773Z,8.83
2023-03-20T03:23:06.822Z,8.81
2023-03-20T03:24:06.844Z,8.83
2023-03-20T03:25:06.744Z,8.83
2023-03-20T03:26:07.543Z,8.83
2023-03-20T03:27:06.803Z,8.81
2023-03-20T03:28:06.799Z,8.81
2023-03-20T03:29:06.846Z,8.84
2023-03-20T03:30:06.765Z,8.83
2023-03-20T03:31:07.637Z,8.83
2023-03-20T03:32:07.621Z,8.83
2023-03-20T03:33:06.833Z,8.84
2023-03-20T03:34:06.704Z,8.84
2023-03-20T03:35:06.742Z,8.84
2023-03-20T03:36:07.674Z,8.86
2023-03-20T03:37:06.642Z,8.84
2023-03-20T03:38:06.763Z,8.86
2023-03-20T03:39:06.596Z,8.86
2023-03-20T03:40:06.617Z,8.87
2023-03-20T03:41:06.627Z,8.88
2023-03-20T03:42:06.566Z,8.88
2023-03-20T03:43:07.460Z,8.88
2023-03-20T03:44:06.516Z,8.90
2023-03-20T03:45:06.495Z,8.90
2023-03-20T03:46:07.492Z,8.90
2023-03-20T03:47:06.602Z,8.90
2023-03-20T03:48:06.491Z,8.90
2023-03-20T03:49:06.447Z,8.91
2023-03-20T03:50:06.447Z,8.90
2023-03-20T03:51:06.485Z,8.91
2023-03-20T03:52:06.537Z,8.90
2023-03-20T03:53:06.435Z,8.91
2023-03-20T03:54:06.390Z,8.93
2023-03-20T03:55:06.397Z,8.90
2023-03-20T03:56:06.435Z,8.90
2023-03-20T03:57:06.377Z,8.94
2023-03-20T03:58:06.389Z,8.91
2023-03-20T03:59:06.377Z,8.91
2023-03-20T04:00:06.341Z,8.91
2023-03-20T04:01:06.280Z,8.91
2023-03-20T04:02:06.453Z,8.93
2023-03-20T04:03:06.633Z,8.91
2023-03-20T04:04:06.270Z,8.93
2023-03-20T04:05:07.395Z,8.94
2023-03-20T04:06:07.288Z,8.94
2023-03-20T04:07:06.332Z,8.94
2023-03-20T04:08:06.296Z,8.93
2023-03-20T04:09:07.019Z,8.93
2023-03-20T04:10:06.364Z,8.94
2023-03-20T04:11:06.188Z,8.94
2023-03-20T04:12:06.174Z,8.93
2023-03-20T04:13:06.357Z,8.93
2023-03-20T04:14:06.145Z,8.91
2023-03-20T04:15:06.577Z,8.91
2023-03-20T04:16:06.189Z,8.91
2023-03-20T04:17:06.313Z,8.88
2023-03-20T04:18:06.119Z,8.88
2023-03-20T04:19:06.095Z,8.88
2023-03-20T04:20:06.088Z,8.87
2023-03-20T04:21:06.881Z,8.87
2023-03-20T04:22:06.630Z,8.87
2023-03-20T04:23:06.089Z,8.87
2023-03-20T04:24:06.053Z,8.87
2023-03-20T04:25:07.011Z,8.86
2023-03-20T04:26:06.911Z,8.84
2023-03-20T04:27:06.889Z,8.84
2023-03-20T04:28:06.079Z,8.84
2023-03-20T04:29:06.039Z,8.83
2023-03-20T04:30:07.042Z,8.81
2023-03-20T04:31:05.977Z,8.81
2023-03-20T04:32:05.994Z,8.79
2023-03-20T04:33:05.907Z,8.76
2023-03-20T04:34:05.911Z,8.78
2023-03-20T04:35:05.955Z,8.78
2023-03-20T04:36:06.763Z,8.75
2023-03-20T04:37:06.884Z,8.76
2023-03-20T04:38:06.843Z,8.78
2023-03-20T04:39:05.869Z,8.76
2023-03-20T04:40:05.891Z,8.76
2023-03-20T04:41:06.396Z,8.75
2023-03-20T04:42:05.791Z,8.75
2023-03-20T04:43:05.791Z,8.73
2023-03-20T04:44:05.753Z,8.71
2023-03-20T04:45:05.766Z,8.68
2023-03-20T04:46:05.959Z,8.63
2023-03-20T04:47:06.950Z,8.62
2023-03-20T04:48:05.821Z,8.58
2023-03-20T04:49:05.746Z,8.54
2023-03-20T04:50:06.673Z,8.53
2023-03-20T04:51:05.835Z,8.45
2023-03-20T04:52:05.667Z,8.40
2023-03-20T04:53:05.706Z,8.36
2023-03-20T04:54:05.656Z,8.35
2023-03-20T04:55:05.764Z,8.29
2023-03-20T04:56:06.593Z,8.25
2023-03-20T04:57:06.497Z,8.21
2023-03-20T04:58:05.617Z,8.17
2023-03-20T04:59:05.628Z,8.12
2023-03-20T05:00:06.471Z,8.08
2023-03-20T05:01:06.676Z,8.03
2023-03-20T05:02:05.626Z,7.96
2023-03-20T05:03:05.509Z,7.90
2023-03-20T05:04:05.577Z,7.85
2023-03-20T05:05:05.639Z,7.82
2023-03-20T05:06:06.462Z,7.78
2023-03-20T05:07:05.508Z,7.74
2023-03-20T05:08:05.468Z,7.71
2023-03-20T05:09:05.464Z,7.71
2023-03-20T05:10:05.461Z,7.66
2023-03-20T05:11:05.491Z,7.59
2023-03-20T05:12:06.591Z,7.59
2023-03-20T05:13:05.377Z,7.55
2023-03-20T05:14:06.442Z,7.52
2023-03-20T05:15:05.479Z,7.50
2023-03-20T05:16:05.518Z,7.49
2023-03-20T05:17:05.375Z,7.44
2023-03-20T05:18:05.325Z,7.41
2023-03-20T05:19:05.336Z,7.40
2023-03-20T05:20:05.316Z,7.37
2023-03-20T05:21:05.344Z,7.34
2023-03-20T05:22:05.312Z,7.32
2023-03-20T05:23:06.409Z,7.31
2023-03-20T05:24:05.236Z,7.27
2023-03-20T05:25:06.402Z,7.26
2023-03-20T05:26:05.265Z,7.24
2023-03-20T05:27:06.198Z,7.22
2023-03-20T05:28:06.081Z,7.24
2023-03-20T05:29:05.240Z,7.24
2023-03-20T05:30:05.178Z,7.24
2023-03-20T05:31:05.215Z,7.27
2023-03-20T05:32:05.135Z,7.32
2023-03-20T05:33:05.266Z,7.37
2023-03-20T05:34:05.111Z,7.41
2023-03-20T05:35:05.210Z,7.45
2023-03-20T05:36:06.500Z,7.45
2023-03-20T05:37:05.176Z,7.50
2023-03-20T05:38:05.756Z,7.50
2023-03-20T05:39:05.136Z,7.53
2023-03-20T05:40:05.155Z,7.55
2023-03-20T05:41:05.084Z,7.56
2023-03-20T05:42:05.042Z,7.59
2023-03-20T05:43:06.188Z,7.62
2023-03-20T05:44:05.010Z,7.62
2023-03-20T05:45:04.996Z,7.62
2023-03-20T05:46:04.996Z,7.62
2023-03-20T05:47:05.014Z,7.69
2023-03-20T05:48:06.099Z,7.72
2023-03-20T05:49:04.947Z,7.77
2023-03-20T05:50:04.990Z,7.82
2023-03-20T05:51:05.014Z,7.87
2023-03-20T05:52:05.894Z,7.90
2023-03-20T05:53:05.233Z,7.97
2023-03-20T05:54:05.390Z,8.00
2023-03-20T05:55:04.841Z,8.04
2023-03-20T05:56:05.373Z,8.11
2023-03-20T05:57:05.465Z,8.14
2023-03-20T05:58:04.814Z,8.18
2023-03-20T05:59:04.909Z,8.22
2023-03-20T06:00:04.852Z,8.29
2023-03-20T06:01:04.765Z,8.33
2023-03-20T06:02:04.773Z,8.39
2023-03-20T06:03:05.028Z,8.45
2023-03-20T06:04:04.839Z,8.48
2023-03-20T06:05:04.717Z,8.54
2023-03-20T06:06:04.774Z,8.57
2023-03-20T06:07:04.743Z,8.57
2023-03-20T06:08:04.696Z,8.60
2023-03-20T06:09:04.757Z,8.63
2023-03-20T06:10:04.735Z,8.65
2023-03-20T06:11:04.667Z,8.68
2023-03-20T06:12:04.639Z,8.69
2023-03-20T06:13:04.609Z,8.73
2023-03-20T06:14:04.619Z,8.76
2023-03-20T06:15:04.736Z,8.81
2023-03-20T06:16:05.128Z,8.86
2023-03-20T06:17:04.698Z,8.93
2023-03-20T06:18:04.661Z,8.94
2023-03-20T06:19:04.554Z,8.99
2023-03-20T06:20:04.591Z,9.01
2023-03-20T06:21:04.576Z,9.05
2023-03-20T06:22:05.500Z,9.12
2023-03-20T06:23:04.659Z,9.15
2023-03-20T06:24:04.507Z,9.15
2023-03-20T06:25:04.738Z,9.18
2023-03-20T06:26:04.493Z,9.24
2023-03-20T06:27:04.542Z,9.27
2023-03-20T06:28:04.468Z,9.28
2023-03-20T06:29:04.486Z,9.31
2023-03-20T06:30:04.408Z,9.28
2023-03-20T06:31:04.610Z,9.28
2023-03-20T06:32:04.395Z,9.27
2023-03-20T06:33:04.459Z,9.24
2023-03-20T06:34:04.378Z,9.28
2023-03-20T06:35:04.637Z,9.28
2023-03-20T06:36:04.372Z,9.25
2023-03-20T06:37:04.462Z,9.25
2023-03-20T06:38:04.388Z,9.30
2023-03-20T06:39:04.309Z,9.27
2023-03-20T06:40:04.253Z,9.25
2023-03-20T06:41:04.275Z,9.30
2023-03-20T06:42:04.474Z,9.27
2023-03-20T06:43:05.027Z,9.25
2023-03-20T06:44:04.216Z,9.27
2023-03-20T06:45:04.303Z,9.31
2023-03-20T06:46:04.394Z,9.35
2023-03-20T06:47:04.171Z,9.35
2023-03-20T06:48:04.172Z,9.38
2023-03-20T06:49:04.148Z,9.42
2023-03-20T06:50:04.211Z,9.42
2023-03-20T06:51:04.749Z,9.46
2023-03-20T06:52:04.112Z,9.46
2023-03-20T06:53:04.104Z,9.48
2023-03-20T06:54:04.081Z,9.50
2023-03-20T06:55:04.171Z,9.50
2023-03-20T06:56:05.049Z,9.53
2023-03-20T06:57:04.189Z,9.57
2023-03-20T06:58:04.067Z,9.61
2023-03-20T06:59:04.041Z,9.58
2023-03-20T07:00:05.552Z,9.58
2023-03-20T07:01:04.823Z,9.63
2023-03-20T07:02:04.048Z,9.63
2023-03-20T07:03:04.095Z,9.64
2023-03-20T07:04:03.995Z,9.64
2023-03-20T07:05:04.018Z,9.64
2023-03-20T07:06:03.956Z,9.63
2023-03-20T07:07:04.762Z,9.66
2023-03-20T07:08:04.093Z,9.67
2023-03-20T07:09:03.957Z,9.68
2023-03-20T07:10:03.958Z,9.67
2023-03-20T07:11:03.856Z,9.67
2023-03-20T07:12:03.850Z,9.71
2023-03-20T07:13:03.970Z,9.75
2023-03-20T07:14:04.303Z,9.75
2023-03-20T07:15:03.863Z,9.76
2023-03-20T07:16:05.247Z,9.73
2023-03-20T07:17:03.850Z,9.79
2023-03-20T07:18:03.790Z,9.81
2023-03-20T07:19:03.810Z,9.82
2023-03-20T07:20:04.434Z,9.85
2023-03-20T07:21:03.891Z,9.86
2023-03-20T07:22:03.783Z,9.88
2023-03-20T07:23:03.852Z,9.88
2023-03-20T07:24:03.756Z,9.86
2023-03-20T07:25:03.677Z,9.85
2023-03-20T07:26:03.742Z,9.88
2023-03-20T07:27:03.678Z,9.91
2023-03-20T07:28:03.718Z,9.89
2023-03-20T07:29:03.831Z,9.86
2023-03-20T07:30:03.803Z,9.86
2023-03-20T07:31:03.741Z,9.85
2023-03-20T07:32:03.635Z,9.83
2023-03-20T07:33:03.638Z,9.85
2023-03-20T07:34:03.759Z,9.88
2023-03-20T07:35:03.709Z,9.88
2023-03-20T07:36:03.629Z,9.93
2023-03-20T07:37:03.656Z,9.97
2023-03-20T07:38:03.561Z,9.99
2023-03-20T07:39:03.604Z,9.96
2023-03-20T07:40:03.529Z,9.99
2023-03-20T07:41:03.498Z,9.96
2023-03-20T07:42:03.662Z,9.96
2023-03-20T07:43:03.456Z,9.96
2023-03-20T07:44:03.461Z,9.99
2023-03-20T07:45:03.490Z,9.99
2023-03-20T07:46:03.922Z,10.00
2023-03-20T07:47:03.426Z,10.03
2023-03-20T07:48:03.432Z,10.09
2023-03-20T07:49:03.372Z,10.14
2023-03-20T07:50:03.367Z,10.18
2023-03-20T07:51:03.446Z,10.26
2023-03-20T07:52:04.541Z,10.36
2023-03-20T07:53:03.331Z,10.42
2023-03-20T07:54:04.055Z,10.52
2023-03-20T07:55:03.288Z,10.65
2023-03-20T07:56:03.294Z,10.74
2023-03-20T07:57:03.321Z,10.76
2023-03-20T07:58:03.881Z,10.77
2023-03-20T07:59:03.255Z,10.83
2023-03-20T08:00:03.294Z,10.84
2023-03-20T08:01:03.235Z,10.77
2023-03-20T08:02:03.214Z,10.76
2023-03-20T08:03:03.390Z,10.70
2023-03-20T08:04:03.290Z,10.66
2023-03-20T08:05:03.165Z,10.68
2023-03-20T08:06:03.186Z,10.73
2023-03-20T08:07:03.154Z,10.71
2023-03-20T08:08:03.135Z,10.76
2023-03-20T08:09:03.150Z,10.76
2023-03-20T08:10:03.775Z,10.83
2023-03-20T08:11:03.165Z,10.81
2023-03-20T08:12:03.208Z,10.80
2023-03-20T08:13:03.245Z,10.78
2023-03-20T08:14:03.035Z,10.78
2023-03-20T08:15:03.060Z,10.83
2023-03-20T08:16:03.932Z,10.81
2023-03-20T08:17:14.527Z,10.88
2023-03-20T08:18:04.023Z,10.81
2023-03-20T08:19:03.114Z,10.83
2023-03-20T08:20:03.034Z,10.81
2023-03-20T08:21:02.961Z,10.81
2023-03-20T08:22:03.016Z,10.84
2023-03-20T08:23:03.816Z,10.84
2023-03-20T08:24:02.995Z,10.89
2023-03-20T08:25:03.476Z,10.91
2023-03-20T08:26:03.900Z,10.91
2023-03-20T08:27:02.959Z,10.91
2023-03-20T08:28:02.913Z,10.94
2023-03-20T08:29:03.028Z,10.94
2023-03-20T08:30:02.919Z,10.92
2023-03-20T08:31:02.924Z,10.92
2023-03-20T08:32:02.941Z,10.88
2023-03-20T08:33:03.321Z,10.88
2023-03-20T08:34:03.280Z,10.94
2023-03-20T08:35:02.804Z,10.95
2023-03-20T08:36:02.870Z,11.01
2023-03-20T08:37:02.811Z,11.02
2023-03-20T08:38:02.865Z,10.96
2023-03-20T08:39:03.612Z,10.96
2023-03-20T08:40:02.718Z,10.98
2023-03-20T08:41:02.732Z,10.98
2023-03-20T08:42:02.707Z,11.01
2023-03-20T08:43:02.700Z,11.02
2023-03-20T08:44:02.768Z,10.98
2023-03-20T08:45:02.761Z,10.95
2023-03-20T08:46:02.714Z,10.91
2023-03-20T08:47:02.622Z,10.92
2023-03-20T08:48:02.862Z,10.92
2023-03-20T08:49:02.658Z,10.92
2023-03-20T08:50:02.643Z,10.94
2023-03-20T08:51:02.601Z,10.95
2023-03-20T08:52:02.591Z,10.88
2023-03-20T08:53:03.318Z,10.88
2023-03-20T08:54:07.857Z,10.83
2023-03-20T08:55:02.525Z,10.80
2023-03-20T08:56:03.490Z,10.76
2023-03-20T08:57:02.547Z,10.74
2023-03-20T08:58:02.511Z,10.76
2023-03-20T08:59:02.477Z,10.73
2023-03-20T09:00:02.454Z,10.76
2023-03-20T09:01:06.478Z,10.73
2023-03-20T09:02:02.565Z,10.76
2023-03-20T09:03:02.501Z,10.78
2023-03-20T09:04:02.664Z,10.74
2023-03-20T09:05:02.422Z,10.73
2023-03-20T09:06:02.397Z,10.65
2023-03-20T09:07:02.353Z,10.66
2023-03-20T09:08:03.348Z,10.65
2023-03-20T09:09:02.482Z,10.68
2023-03-20T09:10:02.406Z,10.77
2023-03-20T09:11:03.111Z,10.76
2023-03-20T09:12:02.311Z,10.78
2023-03-20T09:13:09.534Z,10.81
2023-03-20T09:14:03.307Z,10.80
2023-03-20T09:15:02.323Z,10.78
2023-03-20T09:16:03.283Z,10.80
2023-03-20T09:17:03.034Z,10.83
2023-03-20T09:18:04.001Z,10.80
2023-03-20T09:19:02.210Z,10.81
2023-03-20T09:20:02.534Z,10.77
2023-03-20T09:21:02.253Z,10.80
2023-03-20T09:22:02.205Z,10.77
2023-03-20T09:23:02.319Z,10.73
2023-03-20T09:24:02.213Z,10.74
2023-03-20T09:25:02.136Z,10.81
2023-03-20T09:26:02.279Z,10.86
2023-03-20T09:27:03.674Z,10.86
2023-03-20T09:28:02.101Z,10.86
2023-03-20T09:29:02.094Z,10.81
2023-03-20T09:30:02.551Z,10.92
2023-03-20T09:31:02.121Z,11.01
2023-03-20T09:32:02.064Z,11.11
2023-03-20T09:33:03.081Z,11.06
2023-03-20T09:34:02.037Z,11.03
2023-03-20T09:35:02.038Z,11.01
2023-03-20T09:36:02.148Z,10.98
2023-03-20T09:37:02.007Z,10.91
2023-03-20T09:38:02.023Z,10.84
2023-03-20T09:39:02.981Z,10.78
2023-03-20T09:40:02.038Z,10.76
2023-03-20T09:41:02.806Z,10.77
2023-03-20T09:42:02.143Z,10.81
2023-03-20T09:43:01.895Z,10.78
2023-03-20T09:44:01.914Z,10.78
2023-03-20T09:45:01.871Z,10.81
2023-03-20T09:46:02.841Z,10.86
2023-03-20T09:47:18.429Z,10.77
2023-03-20T09:48:02.847Z,10.73
2023-03-20T09:49:01.818Z,10.55
2023-03-20T09:50:01.800Z,10.42
2023-03-20T09:51:01.875Z,10.43
2023-03-20T09:52:01.961Z,10.44
2023-03-20T09:53:01.773Z,10.44
2023-03-20T09:54:02.552Z,10.55
2023-03-20T09:55:01.912Z,10.66
2023-03-20T09:56:02.750Z,10.66
2023-03-20T09:57:01.903Z,10.76
2023-03-20T09:58:01.764Z,10.78
2023-03-20T09:59:02.589Z,10.62
2023-03-20T10:00:01.731Z,10.59
2023-03-20T10:01:01.671Z,10.59
2023-03-20T10:02:01.679Z,10.59
2023-03-20T10:03:01.708Z,10.62
2023-03-20T10:04:01.673Z,10.68
2023-03-20T10:05:05.808Z,10.62
2023-03-20T10:06:02.431Z,10.62
2023-03-20T10:07:02.915Z,10.73
2023-03-20T10:08:10.664Z,10.80
2023-03-20T10:09:01.674Z,10.91
2023-03-20T10:10:01.591Z,10.94
2023-03-20T10:11:01.564Z,10.98
2023-03-20T10:12:01.766Z,10.99
2023-03-20T10:13:01.562Z,11.07
2023-03-20T10:14:01.745Z,11.13
2023-03-20T10:15:01.482Z,11.19
2023-03-20T10:16:01.559Z,11.10
2023-03-20T10:17:01.489Z,11.07
2023-03-20T10:18:01.447Z,11.06
2023-03-20T10:19:01.496Z,10.99
2023-03-20T10:20:01.470Z,11.06
2023-03-20T10:21:01.400Z,11.09
2023-03-20T10:22:01.435Z,11.14
2023-03-20T10:23:01.386Z,11.17
2023-03-20T10:24:01.408Z,11.13
2023-03-20T10:25:01.347Z,11.06
2023-03-20T10:26:01.446Z,11.03
2023-03-20T10:27:01.546Z,10.98
2023-03-20T10:28:01.334Z,11.01
2023-03-20T10:29:02.278Z,10.96
2023-03-20T10:30:01.436Z,10.94
2023-03-20T10:31:01.296Z,10.95
2023-03-20T10:32:02.730Z,10.95
2023-03-20T10:33:01.326Z,10.94
2023-03-20T10:34:01.251Z,10.96
2023-03-20T10:35:01.263Z,10.94
2023-03-20T10:36:01.347Z,10.74
2023-03-20T10:37:01.191Z,10.77
2023-03-20T10:38:01.299Z,10.86
2023-03-20T10:39:01.190Z,10.96
2023-03-20T10:40:01.238Z,11.14
2023-03-20T10:41:01.174Z,11.28
2023-03-20T10:42:01.642Z,11.39
2023-03-20T10:43:01.154Z,11.53
2023-03-20T10:44:01.141Z,11.62
2023-03-20T10:45:01.112Z,11.68
2023-03-20T10:46:01.104Z,11.67
2023-03-20T10:47:01.147Z,11.61
2023-03-20T10:48:01.112Z,11.59
2023-03-20T10:49:01.042Z,11.62
2023-03-20T10:50:01.076Z,11.50
2023-03-20T10:51:01.072Z,11.53
2023-03-20T10:52:01.016Z,11.65
2023-03-20T10:53:01.456Z,11.83
2023-03-20T10:54:01.925Z,11.71
2023-03-20T10:55:01.095Z,11.53
2023-03-20T10:56:01.759Z,11.49
2023-03-20T10:57:00.967Z,11.54
2023-03-20T10:58:00.926Z,11.70
2023-03-20T10:59:01.000Z,11.83
2023-03-20T11:00:00.903Z,11.89
2023-03-20T11:01:00.975Z,11.96
2023-03-20T11:02:00.917Z,11.87
2023-03-20T11:03:01.700Z,11.75
2023-03-20T11:04:00.943Z,11.59
2023-03-20T11:05:00.871Z,11.56
2023-03-20T11:06:09.326Z,11.56
2023-03-20T11:07:01.965Z,11.56
2023-03-20T11:08:00.830Z,11.64
2023-03-20T11:09:00.828Z,11.72
2023-03-20T11:10:00.770Z,11.80
2023-03-20T11:11:00.834Z,11.86
2023-03-20T11:12:00.755Z,11.96
2023-03-20T11:13:00.748Z,12.06
2023-03-20T11:14:00.717Z,12.23
2023-03-20T11:15:00.704Z,12.44
2023-03-20T11:16:00.987Z,12.54
2023-03-20T11:17:00.774Z,12.44
2023-03-20T11:18:00.792Z,12.62
2023-03-20T11:19:00.676Z,12.71
2023-03-20T11:20:00.658Z,12.92
2023-03-20T11:21:00.625Z,12.88
2023-03-20T11:22:00.624Z,12.99
2023-03-20T11:23:01.696Z,12.96
2023-03-20T11:24:00.944Z,12.99
2023-03-20T11:25:00.601Z,12.99
2023-03-20T11:26:00.934Z,13.02
2023-03-20T11:27:00.560Z,12.89
2023-03-20T11:28:00.669Z,12.78
2023-03-20T11:29:00.592Z,12.64
2023-03-20T11:30:00.525Z,12.57
2023-03-20T11:31:04.800Z,12.56
2023-03-20T11:32:00.580Z,12.59
2023-03-20T11:33:00.559Z,12.60
2023-03-20T11:34:01.340Z,12.67
2023-03-20T11:35:00.683Z,12.78
2023-03-20T11:36:00.518Z,12.88
2023-03-20T11:37:10.074Z,13.00
2023-03-20T11:38:01.406Z,13.14
2023-03-20T11:39:00.389Z,13.18
2023-03-20T11:40:00.378Z,13.11
2023-03-20T11:41:00.699Z,12.70
2023-03-20T11:42:00.395Z,12.64
2023-03-20T11:43:00.417Z,12.70
2023-03-20T11:44:00.362Z,12.81
2023-03-20T11:45:00.415Z,12.85
2023-03-20T11:46:00.773Z,12.88
2023-03-20T11:47:00.309Z,12.85
2023-03-20T11:48:02.023Z,12.79
2023-03-20T11:49:00.311Z,12.95
2023-03-20T11:50:00.459Z,13.09
2023-03-20T11:51:00.298Z,12.97
2023-03-20T11:52:00.217Z,12.77
2023-03-20T11:53:00.269Z,12.67
2023-03-20T11:54:00.409Z,12.71
2023-03-20T11:55:00.206Z,12.67
2023-03-20T11:56:00.274Z,12.63
2023-03-20T11:57:00.171Z,12.67
2023-03-20T11:58:00.160Z,12.78
2023-03-20T11:59:00.123Z,12.78
2023-03-20T12:00:00.156Z,12.74
2023-03-20T12:01:00.134Z,12.77
2023-03-20T12:02:00.257Z,12.64
2023-03-20T12:03:00.097Z,12.45
2023-03-20T12:04:00.234Z,12.31
2023-03-20T12:05:00.165Z,12.34
2023-03-20T12:06:00.659Z,12.42
2023-03-20T12:07:00.015Z,12.41
2023-03-20T12:08:00.016Z,12.41
2023-03-20T12:09:00.048Z,12.33
2023-03-20T12:10:00.029Z,12.41
2023-03-20T12:10:59.996Z,12.45
2023-03-20T12:12:00.250Z,12.52
2023-03-20T12:12:59.970Z,12.57
2023-03-20T12:13:59.958Z,12.60
2023-03-20T12:14:59.959Z,12.48
2023-03-20T12:16:00.038Z,12.34
2023-03-20T12:16:59.933Z,12.11
2023-03-20T12:17:59.914Z,12.15
2023-03-20T12:18:59.934Z,12.26
2023-03-20T12:19:59.907Z,12.49
2023-03-20T12:20:59.841Z,12.71
2023-03-20T12:21:59.841Z,12.89
2023-03-20T12:22:59.814Z,12.95
2023-03-20T12:23:59.872Z,12.95
2023-03-20T12:24:59.873Z,13.11
2023-03-20T12:25:59.989Z,13.14
2023-03-20T12:26:59.850Z,13.18
2023-03-20T12:27:59.981Z,12.96
2023-03-20T12:28:59.747Z,13.02
2023-03-20T12:29:59.786Z,13.12
2023-03-20T12:30:59.763Z,13.04
2023-03-20T12:31:59.953Z,12.96
2023-03-20T12:32:59.831Z,12.99
2023-03-20T12:33:59.754Z,12.92
2023-03-20T12:34:59.683Z,12.96
2023-03-20T12:35:59.995Z,13.00
2023-03-20T12:36:59.664Z,12.74
2023-03-20T12:37:59.646Z,12.62
2023-03-20T12:38:59.686Z,12.57
2023-03-20T12:39:59.698Z,12.57
2023-03-20T12:40:59.664Z,12.56
2023-03-20T12:41:59.651Z,12.64
2023-03-20T12:42:59.598Z,12.51
2023-03-20T12:43:59.538Z,12.38
2023-03-20T12:44:59.560Z,12.57
2023-03-20T12:45:59.564Z,12.69
2023-03-20T12:46:59.531Z,12.82
2023-03-20T12:47:59.530Z,12.84
2023-03-20T12:48:59.513Z,12.63
2023-03-20T12:49:59.508Z,12.67
2023-03-20T12:50:59.491Z,12.75
2023-03-20T12:51:59.542Z,12.79
2023-03-20T12:52:59.431Z,12.51
2023-03-20T12:53:59.420Z,12.42
2023-03-20T12:54:59.412Z,12.57
2023-03-20T12:56:00.390Z,12.63
2023-03-20T12:56:59.418Z,12.70
2023-03-20T12:57:59.410Z,12.57
2023-03-20T12:58:59.377Z,12.62
2023-03-20T12:59:59.365Z,12.64
2023-03-20T13:00:59.328Z,12.63
2023-03-20T13:01:59.392Z,12.69
2023-03-20T13:02:59.383Z,12.62
2023-03-20T13:03:59.291Z,12.62
2023-03-20T13:04:59.291Z,12.59
2023-03-20T13:06:00.516Z,12.57
2023-03-20T13:06:59.430Z,12.51